sensor_id;sensor_type;location;lat;lon;timestamp;temperature;humidity
32614;DHT22;19031;51.400;6.770;2023-01-19T00:00:13;1.60;99.90
32614;DHT22;19031;51.400;6.770;2023-01-19T00:02:39;1.60;99.90
32614;DHT22;19031;51.400;6.770;2023-01-19T00:05:06;1.70;99.90
32614;DHT22;19031;51.400;6.770;2023-01-19T00:07:32;1.60;99.90
32614;DHT22;19031;51.400;6.770;2023-01-19T00:09:58;1.60;99.90
32614;DHT22;19031;51.400;6.770;2023-01-19T00:12:23;1.60;99.90
32614;DHT22;19031;51.400;6.770;2023-01-19T00:14:49;1.50;99.90
32614;DHT22;19031;51.400;6.770;2023-01-19T00:17:15;1.50;99.90
32614;DHT22;19031;51.400;6.770;2023-01-19T00:19:44;1.50;99.90
32614;DHT22;19031;51.400;6.770;2023-01-19T00:22:09;1.40;99.90
32614;DHT22;19031;51.400;6.770;2023-01-19T00:24:35;1.40;99.90
32614;DHT22;19031;51.400;6.770;2023-01-19T00:27:00;1.40;99.90
32614;DHT22;19031;51.400;6.770;2023-01-19T00:29:28;1.40;99.90
32614;DHT22;19031;51.400;6.770;2023-01-19T00:32:01;1.30;99.90
32614;DHT22;19031;51.400;6.770;2023-01-19T00:34:26;1.40;99.90
32614;DHT22;19031;51.400;6.770;2023-01-19T00:37:02;1.40;99.90
32614;DHT22;19031;51.400;6.770;2023-01-19T00:39:27;1.40;99.90
32614;DHT22;19031;51.400;6.770;2023-01-19T00:41:53;1.40;99.90
32614;DHT22;19031;51.400;6.770;2023-01-19T00:44:37;1.30;99.90
32614;DHT22;19031;51.400;6.770;2023-01-19T00:47:02;1.40;99.90
32614;DHT22;19031;51.400;6.770;2023-01-19T00:49:30;1.40;99.90
32614;DHT22;19031;51.400;6.770;2023-01-19T00:51:55;1.40;99.90
32614;DHT22;19031;51.400;6.770;2023-01-19T00:54:21;1.40;99.90
32614;DHT22;19031;51.400;6.770;2023-01-19T00:56:47;1.40;99.90
32614;DHT22;19031;51.400;6.770;2023-01-19T00:59:12;1.40;99.90
32614;DHT22;19031;51.400;6.770;2023-01-19T01:01:38;1.40;99.90
32614;DHT22;19031;51.400;6.770;2023-01-19T01:04:03;1.30;99.90
32614;DHT22;19031;51.400;6.770;2023-01-19T01:06:29;1.40;99.90
32614;DHT22;19031;51.400;6.770;2023-01-19T01:08:55;1.40;99.90
32614;DHT22;19031;51.400;6.770;2023-01-19T01:11:21;1.40;99.90
32614;DHT22;19031;51.400;6.770;2023-01-19T01:13:46;1.40;99.90
32614;DHT22;19031;51.400;6.770;2023-01-19T01:16:15;1.40;99.90
32614;DHT22;19031;51.400;6.770;2023-01-19T01:18:42;1.50;99.90
32614;DHT22;19031;51.400;6.770;2023-01-19T01:21:09;1.40;99.90
32614;DHT22;19031;51.400;6.770;2023-01-19T01:23:34;1.50;99.90
32614;DHT22;19031;51.400;6.770;2023-01-19T01:26:00;1.50;99.90
32614;DHT22;19031;51.400;6.770;2023-01-19T01:28:26;1.50;99.90
32614;DHT22;19031;51.400;6.770;2023-01-19T01:30:55;1.60;99.90
32614;DHT22;19031;51.400;6.770;2023-01-19T01:33:21;1.60;99.90
32614;DHT22;19031;51.400;6.770;2023-01-19T01:35:50;1.70;99.90
32614;DHT22;19031;51.400;6.770;2023-01-19T01:38:16;1.70;99.90
32614;DHT22;19031;51.400;6.770;2023-01-19T01:40:42;1.70;99.90
32614;DHT22;19031;51.400;6.770;2023-01-19T01:43:11;1.70;99.90
32614;DHT22;19031;51.400;6.770;2023-01-19T01:45:37;1.70;99.90
32614;DHT22;19031;51.400;6.770;2023-01-19T01:48:24;1.80;99.90
32614;DHT22;19031;51.400;6.770;2023-01-19T01:50:52;1.80;99.90
32614;DHT22;19031;51.400;6.770;2023-01-19T01:53:37;1.90;99.90
32614;DHT22;19031;51.400;6.770;2023-01-19T01:56:05;1.90;99.90
32614;DHT22;19031;51.400;6.770;2023-01-19T01:58:31;1.90;99.90
32614;DHT22;19031;51.400;6.770;2023-01-19T02:00:58;1.80;99.90
32614;DHT22;19031;51.400;6.770;2023-01-19T02:03:42;1.80;99.90
32614;DHT22;19031;51.400;6.770;2023-01-19T02:06:08;1.80;99.90
32614;DHT22;19031;51.400;6.770;2023-01-19T02:08:41;1.80;99.90
32614;DHT22;19031;51.400;6.770;2023-01-19T02:11:27;1.80;99.90
32614;DHT22;19031;51.400;6.770;2023-01-19T02:14:11;1.90;99.90
32614;DHT22;19031;51.400;6.770;2023-01-19T02:16:37;1.90;99.90
32614;DHT22;19031;51.400;6.770;2023-01-19T02:19:04;1.90;99.90
32614;DHT22;19031;51.400;6.770;2023-01-19T02:24:01;1.90;99.90
32614;DHT22;19031;51.400;6.770;2023-01-19T02:26:32;1.90;99.90
32614;DHT22;19031;51.400;6.770;2023-01-19T02:28:59;2.00;99.90
32614;DHT22;19031;51.400;6.770;2023-01-19T02:31:26;1.90;99.90
32614;DHT22;19031;51.400;6.770;2023-01-19T02:33:53;1.90;99.90
32614;DHT22;19031;51.400;6.770;2023-01-19T02:36:20;1.90;99.90
32614;DHT22;19031;51.400;6.770;2023-01-19T02:38:47;1.90;99.90
32614;DHT22;19031;51.400;6.770;2023-01-19T02:41:14;1.90;99.90
32614;DHT22;19031;51.400;6.770;2023-01-19T02:43:40;1.90;99.90
32614;DHT22;19031;51.400;6.770;2023-01-19T02:46:06;1.90;99.90
32614;DHT22;19031;51.400;6.770;2023-01-19T02:48:32;1.90;99.90
32614;DHT22;19031;51.400;6.770;2023-01-19T02:50:58;1.90;99.90
32614;DHT22;19031;51.400;6.770;2023-01-19T02:58:32;1.70;99.90
32614;DHT22;19031;51.400;6.770;2023-01-19T03:01:08;1.70;99.90
32614;DHT22;19031;51.400;6.770;2023-01-19T03:06:15;1.60;99.90
32614;DHT22;19031;51.400;6.770;2023-01-19T03:08:59;1.60;99.90
32614;DHT22;19031;51.400;6.770;2023-01-19T03:11:28;1.60;99.90
32614;DHT22;19031;51.400;6.770;2023-01-19T03:14:13;1.60;99.90
32614;DHT22;19031;51.400;6.770;2023-01-19T03:16:42;1.70;99.90
32614;DHT22;19031;51.400;6.770;2023-01-19T03:19:12;1.70;99.90
32614;DHT22;19031;51.400;6.770;2023-01-19T03:21:40;1.70;99.90
32614;DHT22;19031;51.400;6.770;2023-01-19T03:24:07;1.80;99.90
32614;DHT22;19031;51.400;6.770;2023-01-19T03:26:37;1.80;99.90
32614;DHT22;19031;51.400;6.770;2023-01-19T03:29:04;1.80;99.90
32614;DHT22;19031;51.400;6.770;2023-01-19T03:31:31;1.80;99.90
32614;DHT22;19031;51.400;6.770;2023-01-19T03:33:59;1.90;99.90
32614;DHT22;19031;51.400;6.770;2023-01-19T03:36:29;1.80;99.90
32614;DHT22;19031;51.400;6.770;2023-01-19T03:38:55;1.90;99.90
32614;DHT22;19031;51.400;6.770;2023-01-19T03:41:22;1.90;99.90
32614;DHT22;19031;51.400;6.770;2023-01-19T03:43:48;1.80;99.90
32614;DHT22;19031;51.400;6.770;2023-01-19T03:46:16;1.90;99.90
32614;DHT22;19031;51.400;6.770;2023-01-19T03:48:43;1.90;99.90
32614;DHT22;19031;51.400;6.770;2023-01-19T03:51:09;2.00;99.90
32614;DHT22;19031;51.400;6.770;2023-01-19T03:53:35;2.00;99.90
32614;DHT22;19031;51.400;6.770;2023-01-19T03:56:00;2.10;99.90
32614;DHT22;19031;51.400;6.770;2023-01-19T03:58:26;2.10;99.90
32614;DHT22;19031;51.400;6.770;2023-01-19T04:00:52;2.10;99.90
32614;DHT22;19031;51.400;6.770;2023-01-19T04:03:18;2.00;99.90
32614;DHT22;19031;51.400;6.770;2023-01-19T04:05:44;2.10;99.90
32614;DHT22;19031;51.400;6.770;2023-01-19T04:08:10;2.00;99.90
32614;DHT22;19031;51.400;6.770;2023-01-19T04:10:36;2.00;99.90
32614;DHT22;19031;51.400;6.770;2023-01-19T04:13:01;2.00;99.90
32614;DHT22;19031;51.400;6.770;2023-01-19T04:15:27;1.90;99.90
32614;DHT22;19031;51.400;6.770;2023-01-19T04:17:53;1.80;99.90
32614;DHT22;19031;51.400;6.770;2023-01-19T04:20:19;1.90;99.90
32614;DHT22;19031;51.400;6.770;2023-01-19T04:22:46;1.80;99.90
32614;DHT22;19031;51.400;6.770;2023-01-19T04:25:11;1.70;99.90
32614;DHT22;19031;51.400;6.770;2023-01-19T04:27:36;1.70;99.90
32614;DHT22;19031;51.400;6.770;2023-01-19T04:30:02;1.70;99.90
32614;DHT22;19031;51.400;6.770;2023-01-19T04:32:28;1.60;99.90
32614;DHT22;19031;51.400;6.770;2023-01-19T04:34:54;1.60;99.90
32614;DHT22;19031;51.400;6.770;2023-01-19T04:37:19;1.60;99.90
32614;DHT22;19031;51.400;6.770;2023-01-19T04:39:45;1.60;99.90
32614;DHT22;19031;51.400;6.770;2023-01-19T04:42:10;1.40;99.90
32614;DHT22;19031;51.400;6.770;2023-01-19T04:44:36;1.50;99.90
32614;DHT22;19031;51.400;6.770;2023-01-19T04:47:01;1.50;99.90
32614;DHT22;19031;51.400;6.770;2023-01-19T04:49:27;1.50;99.90
32614;DHT22;19031;51.400;6.770;2023-01-19T04:51:53;1.50;99.90
32614;DHT22;19031;51.400;6.770;2023-01-19T04:54:18;1.40;99.90
32614;DHT22;19031;51.400;6.770;2023-01-19T04:56:44;1.50;99.90
32614;DHT22;19031;51.400;6.770;2023-01-19T04:59:09;1.50;99.90
32614;DHT22;19031;51.400;6.770;2023-01-19T05:01:35;1.40;99.90
32614;DHT22;19031;51.400;6.770;2023-01-19T05:04:01;1.50;99.90
32614;DHT22;19031;51.400;6.770;2023-01-19T05:06:27;1.50;99.90
32614;DHT22;19031;51.400;6.770;2023-01-19T05:08:53;1.50;99.90
32614;DHT22;19031;51.400;6.770;2023-01-19T05:11:19;1.60;99.90
32614;DHT22;19031;51.400;6.770;2023-01-19T05:13:44;1.60;99.90
32614;DHT22;19031;51.400;6.770;2023-01-19T05:16:09;1.70;99.90
32614;DHT22;19031;51.400;6.770;2023-01-19T05:18:36;1.50;99.90
32614;DHT22;19031;51.400;6.770;2023-01-19T05:21:02;1.50;99.90
32614;DHT22;19031;51.400;6.770;2023-01-19T05:23:27;1.40;99.90
32614;DHT22;19031;51.400;6.770;2023-01-19T05:25:55;1.40;99.90
32614;DHT22;19031;51.400;6.770;2023-01-19T05:28:21;1.40;99.90
32614;DHT22;19031;51.400;6.770;2023-01-19T05:30:48;1.40;99.90
32614;DHT22;19031;51.400;6.770;2023-01-19T05:33:13;1.30;99.90
32614;DHT22;19031;51.400;6.770;2023-01-19T05:35:38;1.30;99.90
32614;DHT22;19031;51.400;6.770;2023-01-19T05:38:04;1.30;99.90
32614;DHT22;19031;51.400;6.770;2023-01-19T05:40:29;1.30;99.90
32614;DHT22;19031;51.400;6.770;2023-01-19T05:42:55;1.30;99.90
32614;DHT22;19031;51.400;6.770;2023-01-19T05:45:25;1.30;99.90
32614;DHT22;19031;51.400;6.770;2023-01-19T05:47:52;1.30;99.90
32614;DHT22;19031;51.400;6.770;2023-01-19T05:50:17;1.20;99.90
32614;DHT22;19031;51.400;6.770;2023-01-19T05:52:43;1.30;99.90
32614;DHT22;19031;51.400;6.770;2023-01-19T05:55:08;1.30;99.90
32614;DHT22;19031;51.400;6.770;2023-01-19T05:57:34;1.40;99.90
32614;DHT22;19031;51.400;6.770;2023-01-19T05:59:59;1.40;99.90
32614;DHT22;19031;51.400;6.770;2023-01-19T06:02:25;1.30;99.90
32614;DHT22;19031;51.400;6.770;2023-01-19T06:04:53;1.40;99.90
32614;DHT22;19031;51.400;6.770;2023-01-19T06:07:18;1.40;99.90
32614;DHT22;19031;51.400;6.770;2023-01-19T06:09:44;1.40;99.90
32614;DHT22;19031;51.400;6.770;2023-01-19T06:12:09;1.40;99.90
32614;DHT22;19031;51.400;6.770;2023-01-19T06:14:35;1.40;99.90
32614;DHT22;19031;51.400;6.770;2023-01-19T06:17:02;1.40;99.90
32614;DHT22;19031;51.400;6.770;2023-01-19T06:19:28;1.40;99.90
32614;DHT22;19031;51.400;6.770;2023-01-19T06:21:53;1.40;99.90
32614;DHT22;19031;51.400;6.770;2023-01-19T06:24:19;1.40;99.90
32614;DHT22;19031;51.400;6.770;2023-01-19T06:26:44;1.40;99.90
32614;DHT22;19031;51.400;6.770;2023-01-19T06:29:10;1.50;99.90
32614;DHT22;19031;51.400;6.770;2023-01-19T06:31:36;1.40;99.90
32614;DHT22;19031;51.400;6.770;2023-01-19T06:34:02;1.50;99.90
32614;DHT22;19031;51.400;6.770;2023-01-19T06:36:27;1.40;99.90
32614;DHT22;19031;51.400;6.770;2023-01-19T06:38:53;1.40;99.90
32614;DHT22;19031;51.400;6.770;2023-01-19T06:41:18;1.50;99.90
32614;DHT22;19031;51.400;6.770;2023-01-19T06:43:44;1.50;99.90
32614;DHT22;19031;51.400;6.770;2023-01-19T06:46:09;1.50;99.90
32614;DHT22;19031;51.400;6.770;2023-01-19T06:48:34;1.50;99.90
32614;DHT22;19031;51.400;6.770;2023-01-19T06:51:00;1.50;99.90
32614;DHT22;19031;51.400;6.770;2023-01-19T06:53:26;1.50;99.90
32614;DHT22;19031;51.400;6.770;2023-01-19T06:55:52;1.50;99.90
32614;DHT22;19031;51.400;6.770;2023-01-19T06:58:18;1.70;99.90
32614;DHT22;19031;51.400;6.770;2023-01-19T07:00:43;1.60;99.90
32614;DHT22;19031;51.400;6.770;2023-01-19T07:03:10;1.60;99.90
32614;DHT22;19031;51.400;6.770;2023-01-19T07:05:40;1.70;99.90
32614;DHT22;19031;51.400;6.770;2023-01-19T07:08:05;1.70;99.90
32614;DHT22;19031;51.400;6.770;2023-01-19T07:10:31;1.70;99.90
32614;DHT22;19031;51.400;6.770;2023-01-19T07:12:56;1.60;99.90
32614;DHT22;19031;51.400;6.770;2023-01-19T07:15:22;1.80;99.90
32614;DHT22;19031;51.400;6.770;2023-01-19T07:17:48;1.80;99.90
32614;DHT22;19031;51.400;6.770;2023-01-19T07:20:13;1.70;99.90
32614;DHT22;19031;51.400;6.770;2023-01-19T07:22:39;1.80;99.90
32614;DHT22;19031;51.400;6.770;2023-01-19T07:25:05;1.80;99.90
32614;DHT22;19031;51.400;6.770;2023-01-19T07:27:31;1.80;99.90
32614;DHT22;19031;51.400;6.770;2023-01-19T07:29:57;1.80;99.90
32614;DHT22;19031;51.400;6.770;2023-01-19T07:32:22;1.70;99.90
32614;DHT22;19031;51.400;6.770;2023-01-19T07:34:48;1.80;99.90
32614;DHT22;19031;51.400;6.770;2023-01-19T07:37:13;1.80;99.90
32614;DHT22;19031;51.400;6.770;2023-01-19T07:39:39;1.80;99.90
32614;DHT22;19031;51.400;6.770;2023-01-19T07:42:05;1.80;99.90
32614;DHT22;19031;51.400;6.770;2023-01-19T07:44:30;1.80;99.90
32614;DHT22;19031;51.400;6.770;2023-01-19T07:46:56;1.80;99.90
32614;DHT22;19031;51.400;6.770;2023-01-19T07:49:21;1.90;99.90
32614;DHT22;19031;51.400;6.770;2023-01-19T07:51:47;1.80;99.90
32614;DHT22;19031;51.400;6.770;2023-01-19T07:54:12;1.80;99.90
32614;DHT22;19031;51.400;6.770;2023-01-19T07:56:38;1.70;99.90
32614;DHT22;19031;51.400;6.770;2023-01-19T07:59:03;1.70;99.90
32614;DHT22;19031;51.400;6.770;2023-01-19T08:01:29;1.90;99.90
32614;DHT22;19031;51.400;6.770;2023-01-19T08:03:55;1.90;99.90
32614;DHT22;19031;51.400;6.770;2023-01-19T08:06:21;1.90;99.90
32614;DHT22;19031;51.400;6.770;2023-01-19T08:08:48;1.90;99.90
32614;DHT22;19031;51.400;6.770;2023-01-19T08:11:13;1.80;99.90
32614;DHT22;19031;51.400;6.770;2023-01-19T08:13:39;1.90;99.90
32614;DHT22;19031;51.400;6.770;2023-01-19T08:16:05;2.00;99.90
32614;DHT22;19031;51.400;6.770;2023-01-19T08:18:30;1.90;99.90
32614;DHT22;19031;51.400;6.770;2023-01-19T08:20:59;2.00;99.90
32614;DHT22;19031;51.400;6.770;2023-01-19T08:23:24;2.00;99.90
32614;DHT22;19031;51.400;6.770;2023-01-19T08:25:50;2.00;99.90
32614;DHT22;19031;51.400;6.770;2023-01-19T08:28:15;2.00;99.90
32614;DHT22;19031;51.400;6.770;2023-01-19T08:30:41;1.90;99.90
32614;DHT22;19031;51.400;6.770;2023-01-19T08:33:11;1.90;99.90
32614;DHT22;19031;51.400;6.770;2023-01-19T08:35:37;2.00;99.90
32614;DHT22;19031;51.400;6.770;2023-01-19T08:38:03;2.00;99.90
32614;DHT22;19031;51.400;6.770;2023-01-19T08:40:30;2.00;99.90
32614;DHT22;19031;51.400;6.770;2023-01-19T08:42:58;1.90;99.90
32614;DHT22;19031;51.400;6.770;2023-01-19T08:45:25;2.00;99.90
32614;DHT22;19031;51.400;6.770;2023-01-19T08:47:53;2.00;99.90
32614;DHT22;19031;51.400;6.770;2023-01-19T08:50:19;2.00;99.90
32614;DHT22;19031;51.400;6.770;2023-01-19T08:52:44;2.00;99.90
32614;DHT22;19031;51.400;6.770;2023-01-19T08:55:10;2.10;99.90
32614;DHT22;19031;51.400;6.770;2023-01-19T08:57:35;2.10;99.90
32614;DHT22;19031;51.400;6.770;2023-01-19T09:00:01;2.00;99.90
32614;DHT22;19031;51.400;6.770;2023-01-19T09:02:28;2.10;99.90
32614;DHT22;19031;51.400;6.770;2023-01-19T09:04:54;2.10;99.90
32614;DHT22;19031;51.400;6.770;2023-01-19T09:07:19;2.10;99.90
32614;DHT22;19031;51.400;6.770;2023-01-19T09:09:45;2.20;99.90
32614;DHT22;19031;51.400;6.770;2023-01-19T09:12:10;2.20;99.90
32614;DHT22;19031;51.400;6.770;2023-01-19T09:14:36;2.20;99.90
32614;DHT22;19031;51.400;6.770;2023-01-19T09:17:01;2.10;99.90
32614;DHT22;19031;51.400;6.770;2023-01-19T09:19:27;2.00;99.90
32614;DHT22;19031;51.400;6.770;2023-01-19T09:21:53;2.00;99.90
32614;DHT22;19031;51.400;6.770;2023-01-19T09:24:19;2.00;99.90
32614;DHT22;19031;51.400;6.770;2023-01-19T09:26:44;1.90;99.90
32614;DHT22;19031;51.400;6.770;2023-01-19T09:29:10;2.00;99.90
32614;DHT22;19031;51.400;6.770;2023-01-19T09:31:35;2.10;99.90
32614;DHT22;19031;51.400;6.770;2023-01-19T09:34:01;2.10;99.90
32614;DHT22;19031;51.400;6.770;2023-01-19T09:36:26;2.10;99.90
32614;DHT22;19031;51.400;6.770;2023-01-19T09:38:52;2.10;99.90
32614;DHT22;19031;51.400;6.770;2023-01-19T09:41:18;2.10;99.90
32614;DHT22;19031;51.400;6.770;2023-01-19T09:43:46;2.20;99.90
32614;DHT22;19031;51.400;6.770;2023-01-19T09:46:20;2.20;99.90
32614;DHT22;19031;51.400;6.770;2023-01-19T09:48:53;2.20;99.90
32614;DHT22;19031;51.400;6.770;2023-01-19T09:51:21;2.20;99.90
32614;DHT22;19031;51.400;6.770;2023-01-19T09:56:14;2.30;99.90
32614;DHT22;19031;51.400;6.770;2023-01-19T09:58:41;2.40;99.90
32614;DHT22;19031;51.400;6.770;2023-01-19T10:01:12;2.40;99.90
32614;DHT22;19031;51.400;6.770;2023-01-19T10:03:39;2.30;99.90
32614;DHT22;19031;51.400;6.770;2023-01-19T10:06:05;2.30;99.90
32614;DHT22;19031;51.400;6.770;2023-01-19T10:08:40;2.30;99.90
32614;DHT22;19031;51.400;6.770;2023-01-19T10:11:10;2.30;99.90
32614;DHT22;19031;51.400;6.770;2023-01-19T10:13:42;2.30;99.90
32614;DHT22;19031;51.400;6.770;2023-01-19T10:16:24;2.30;99.90
32614;DHT22;19031;51.400;6.770;2023-01-19T10:18:52;2.30;99.90
32614;DHT22;19031;51.400;6.770;2023-01-19T10:21:21;2.40;99.90
32614;DHT22;19031;51.400;6.770;2023-01-19T10:23:51;2.40;99.90
32614;DHT22;19031;51.400;6.770;2023-01-19T10:26:22;2.40;99.90
32614;DHT22;19031;51.400;6.770;2023-01-19T10:28:49;2.40;99.90
32614;DHT22;19031;51.400;6.770;2023-01-19T10:31:17;2.50;99.90
32614;DHT22;19031;51.400;6.770;2023-01-19T10:33:43;2.40;99.90
32614;DHT22;19031;51.400;6.770;2023-01-19T10:36:14;2.40;99.90
32614;DHT22;19031;51.400;6.770;2023-01-19T10:38:40;2.50;99.90
32614;DHT22;19031;51.400;6.770;2023-01-19T10:41:09;2.60;99.90
32614;DHT22;19031;51.400;6.770;2023-01-19T10:43:37;2.60;99.90
32614;DHT22;19031;51.400;6.770;2023-01-19T10:48:41;2.70;99.90
32614;DHT22;19031;51.400;6.770;2023-01-19T10:51:07;2.80;99.90
32614;DHT22;19031;51.400;6.770;2023-01-19T10:53:33;2.70;99.90
32614;DHT22;19031;51.400;6.770;2023-01-19T10:57:00;2.80;99.90
32614;DHT22;19031;51.400;6.770;2023-01-19T10:58:53;2.80;99.90
32614;DHT22;19031;51.400;6.770;2023-01-19T11:01:20;2.90;99.90
32614;DHT22;19031;51.400;6.770;2023-01-19T11:03:46;2.90;99.90
32614;DHT22;19031;51.400;6.770;2023-01-19T11:08:40;2.90;99.90
32614;DHT22;19031;51.400;6.770;2023-01-19T11:11:05;2.90;99.90
32614;DHT22;19031;51.400;6.770;2023-01-19T11:13:39;2.90;99.90
32614;DHT22;19031;51.400;6.770;2023-01-19T11:16:07;3.00;99.90
32614;DHT22;19031;51.400;6.770;2023-01-19T11:18:37;3.00;99.90
32614;DHT22;19031;51.400;6.770;2023-01-19T11:21:07;2.90;99.90
32614;DHT22;19031;51.400;6.770;2023-01-19T11:23:33;2.80;99.90
32614;DHT22;19031;51.400;6.770;2023-01-19T11:26:01;2.80;99.90
32614;DHT22;19031;51.400;6.770;2023-01-19T11:28:36;2.90;99.90
32614;DHT22;19031;51.400;6.770;2023-01-19T11:36:15;2.80;99.90
32614;DHT22;19031;51.400;6.770;2023-01-19T11:38:41;2.80;99.90
32614;DHT22;19031;51.400;6.770;2023-01-19T11:41:12;2.90;99.90
32614;DHT22;19031;51.400;6.770;2023-01-19T11:43:39;2.90;99.90
32614;DHT22;19031;51.400;6.770;2023-01-19T11:46:06;3.00;99.90
32614;DHT22;19031;51.400;6.770;2023-01-19T11:48:53;3.10;99.90
32614;DHT22;19031;51.400;6.770;2023-01-19T11:51:22;3.10;99.90
32614;DHT22;19031;51.400;6.770;2023-01-19T11:53:51;3.10;99.90
32614;DHT22;19031;51.400;6.770;2023-01-19T11:56:17;3.10;99.90
32614;DHT22;19031;51.400;6.770;2023-01-19T11:58:44;3.20;99.90
32614;DHT22;19031;51.400;6.770;2023-01-19T12:01:21;3.20;99.90
32614;DHT22;19031;51.400;6.770;2023-01-19T12:03:53;3.20;99.90
32614;DHT22;19031;51.400;6.770;2023-01-19T12:06:29;3.20;99.90
32614;DHT22;19031;51.400;6.770;2023-01-19T12:08:56;3.20;99.90
32614;DHT22;19031;51.400;6.770;2023-01-19T12:11:28;3.20;99.90
32614;DHT22;19031;51.400;6.770;2023-01-19T12:13:55;3.30;99.90
32614;DHT22;19031;51.400;6.770;2023-01-19T12:16:31;3.30;99.90
32614;DHT22;19031;51.400;6.770;2023-01-19T12:19:02;3.20;99.90
32614;DHT22;19031;51.400;6.770;2023-01-19T12:21:28;3.20;99.90
32614;DHT22;19031;51.400;6.770;2023-01-19T12:24:11;3.30;99.90
32614;DHT22;19031;51.400;6.770;2023-01-19T12:26:53;3.30;99.90
32614;DHT22;19031;51.400;6.770;2023-01-19T12:29:21;3.40;99.90
32614;DHT22;19031;51.400;6.770;2023-01-19T12:35:13;3.20;99.90
32614;DHT22;19031;51.400;6.770;2023-01-19T12:37:37;3.30;99.90
32614;DHT22;19031;51.400;6.770;2023-01-19T12:42:29;3.50;99.90
32614;DHT22;19031;51.400;6.770;2023-01-19T12:45:13;3.40;99.90
32614;DHT22;19031;51.400;6.770;2023-01-19T12:47:48;3.60;99.90
32614;DHT22;19031;51.400;6.770;2023-01-19T12:50:15;3.70;99.90
32614;DHT22;19031;51.400;6.770;2023-01-19T12:52:41;3.80;99.90
32614;DHT22;19031;51.400;6.770;2023-01-19T12:55:19;3.80;99.90
32614;DHT22;19031;51.400;6.770;2023-01-19T12:57:52;3.80;99.90
32614;DHT22;19031;51.400;6.770;2023-01-19T13:02:45;3.90;99.90
32614;DHT22;19031;51.400;6.770;2023-01-19T13:05:12;4.00;99.90
32614;DHT22;19031;51.400;6.770;2023-01-19T13:13:16;4.20;99.90
32614;DHT22;19031;51.400;6.770;2023-01-19T13:15:42;4.10;99.90
32614;DHT22;19031;51.400;6.770;2023-01-19T13:18:09;4.10;99.90
32614;DHT22;19031;51.400;6.770;2023-01-19T13:20:45;4.10;99.90
32614;DHT22;19031;51.400;6.770;2023-01-19T13:23:17;4.20;99.90
32614;DHT22;19031;51.400;6.770;2023-01-19T13:25:45;4.40;99.90
32614;DHT22;19031;51.400;6.770;2023-01-19T13:28:11;4.40;99.90
32614;DHT22;19031;51.400;6.770;2023-01-19T13:30:38;4.50;99.90
32614;DHT22;19031;51.400;6.770;2023-01-19T13:33:13;4.50;99.90
32614;DHT22;19031;51.400;6.770;2023-01-19T13:35:46;4.50;99.90
32614;DHT22;19031;51.400;6.770;2023-01-19T13:38:12;4.50;99.90
32614;DHT22;19031;51.400;6.770;2023-01-19T13:40:47;4.40;99.90
32614;DHT22;19031;51.400;6.770;2023-01-19T13:43:17;4.40;99.90
32614;DHT22;19031;51.400;6.770;2023-01-19T13:45:47;4.60;99.90
32614;DHT22;19031;51.400;6.770;2023-01-19T13:48:15;4.60;99.90
32614;DHT22;19031;51.400;6.770;2023-01-19T13:50:41;4.50;99.90
32614;DHT22;19031;51.400;6.770;2023-01-19T13:53:16;4.40;99.90
32614;DHT22;19031;51.400;6.770;2023-01-19T13:55:43;4.30;99.90
32614;DHT22;19031;51.400;6.770;2023-01-19T13:58:21;4.30;99.90
32614;DHT22;19031;51.400;6.770;2023-01-19T14:00:47;4.30;99.90
32614;DHT22;19031;51.400;6.770;2023-01-19T14:03:17;4.40;99.90
32614;DHT22;19031;51.400;6.770;2023-01-19T14:05:47;4.30;99.90
32614;DHT22;19031;51.400;6.770;2023-01-19T14:08:14;4.30;99.90
32614;DHT22;19031;51.400;6.770;2023-01-19T14:10:44;4.30;99.90
32614;DHT22;19031;51.400;6.770;2023-01-19T14:15:38;4.30;99.90
32614;DHT22;19031;51.400;6.770;2023-01-19T14:18:38;4.20;99.90
32614;DHT22;19031;51.400;6.770;2023-01-19T14:21:07;4.20;99.90
32614;DHT22;19031;51.400;6.770;2023-01-19T14:26:01;4.40;99.90
32614;DHT22;19031;51.400;6.770;2023-01-19T14:28:28;4.20;99.90
32614;DHT22;19031;51.400;6.770;2023-01-19T14:33:35;4.20;99.90
32614;DHT22;19031;51.400;6.770;2023-01-19T14:36:08;4.10;99.90
32614;DHT22;19031;51.400;6.770;2023-01-19T14:38:33;4.10;99.90
32614;DHT22;19031;51.400;6.770;2023-01-19T14:40:59;4.00;99.90
32614;DHT22;19031;51.400;6.770;2023-01-19T14:43:24;4.10;99.90
32614;DHT22;19031;51.400;6.770;2023-01-19T14:45:52;4.20;99.90
32614;DHT22;19031;51.400;6.770;2023-01-19T14:48:19;4.20;99.90
32614;DHT22;19031;51.400;6.770;2023-01-19T14:50:46;4.10;99.90
32614;DHT22;19031;51.400;6.770;2023-01-19T14:55:48;4.10;99.90
32614;DHT22;19031;51.400;6.770;2023-01-19T14:58:15;4.00;99.90
32614;DHT22;19031;51.400;6.770;2023-01-19T15:00:41;3.90;99.90
32614;DHT22;19031;51.400;6.770;2023-01-19T15:03:07;3.90;99.90
32614;DHT22;19031;51.400;6.770;2023-01-19T15:05:39;3.80;99.90
32614;DHT22;19031;51.400;6.770;2023-01-19T15:08:06;3.80;99.90
32614;DHT22;19031;51.400;6.770;2023-01-19T15:10:32;3.70;99.90
32614;DHT22;19031;51.400;6.770;2023-01-19T15:12:59;3.70;99.90
32614;DHT22;19031;51.400;6.770;2023-01-19T15:15:31;3.60;99.90
32614;DHT22;19031;51.400;6.770;2023-01-19T15:17:57;3.50;99.90
32614;DHT22;19031;51.400;6.770;2023-01-19T15:20:24;3.40;99.90
32614;DHT22;19031;51.400;6.770;2023-01-19T15:22:49;3.30;99.90
32614;DHT22;19031;51.400;6.770;2023-01-19T15:25:15;3.30;99.90
32614;DHT22;19031;51.400;6.770;2023-01-19T15:27:41;3.20;99.90
32614;DHT22;19031;51.400;6.770;2023-01-19T15:30:18;3.20;99.90
32614;DHT22;19031;51.400;6.770;2023-01-19T15:32:44;3.20;99.90
32614;DHT22;19031;51.400;6.770;2023-01-19T15:35:13;3.20;99.90
32614;DHT22;19031;51.400;6.770;2023-01-19T15:37:38;3.10;99.90
32614;DHT22;19031;51.400;6.770;2023-01-19T15:40:04;3.10;99.90
32614;DHT22;19031;51.400;6.770;2023-01-19T15:42:30;3.00;99.90
32614;DHT22;19031;51.400;6.770;2023-01-19T15:44:55;3.00;99.90
32614;DHT22;19031;51.400;6.770;2023-01-19T15:47:20;3.00;99.90
32614;DHT22;19031;51.400;6.770;2023-01-19T15:49:46;2.90;99.90
32614;DHT22;19031;51.400;6.770;2023-01-19T15:52:11;2.90;99.90
32614;DHT22;19031;51.400;6.770;2023-01-19T15:54:37;2.80;99.90
32614;DHT22;19031;51.400;6.770;2023-01-19T15:57:04;2.80;99.90
32614;DHT22;19031;51.400;6.770;2023-01-19T15:59:29;2.80;99.90
32614;DHT22;19031;51.400;6.770;2023-01-19T16:01:54;2.80;99.90
32614;DHT22;19031;51.400;6.770;2023-01-19T16:04:20;2.70;99.90
32614;DHT22;19031;51.400;6.770;2023-01-19T16:06:45;2.60;99.90
32614;DHT22;19031;51.400;6.770;2023-01-19T16:09:11;2.70;99.90
32614;DHT22;19031;51.400;6.770;2023-01-19T16:11:41;2.60;99.90
32614;DHT22;19031;51.400;6.770;2023-01-19T16:14:06;2.60;99.90
32614;DHT22;19031;51.400;6.770;2023-01-19T16:16:31;2.50;99.90
32614;DHT22;19031;51.400;6.770;2023-01-19T16:18:57;2.50;99.90
32614;DHT22;19031;51.400;6.770;2023-01-19T16:21:22;2.50;99.90
32614;DHT22;19031;51.400;6.770;2023-01-19T16:23:48;2.50;99.90
32614;DHT22;19031;51.400;6.770;2023-01-19T16:26:22;2.50;99.90
32614;DHT22;19031;51.400;6.770;2023-01-19T16:28:48;2.60;99.90
32614;DHT22;19031;51.400;6.770;2023-01-19T16:31:13;2.60;99.90
32614;DHT22;19031;51.400;6.770;2023-01-19T16:33:39;2.50;99.90